Time;durP1;ratioP1;P1;durP2;ratioP2;P2;SDS_P1;SDS_P2;PMS_P1;PMS_P2;Temp;Humidity;BMP_temperature;BMP_pressure;BME280_temperature;BME280_humidity;BME280_pressure;Samples;Min_cycle;Max_cycle;Signal;HPM_P1;HPM_P2
2021/05/11 00:00:56;;;;;;;7.88;2.20;;;;;;;19.87;41.74;100738.78;4967445;28;124757;-70
2021/05/11 00:03:22;;;;;;;7.32;2.67;;;;;;;19.84;41.82;100736.38;4969230;28;123979;-70
2021/05/11 00:05:49;;;;;;;6.75;2.40;;;;;;;19.83;42.03;100734.66;4970208;28;109215;-70
2021/05/11 00:08:16;;;;;;;5.28;2.42;;;;;;;19.82;41.97;100727.59;4969474;28;109017;-70
2021/05/11 00:10:43;;;;;;;7.60;2.40;;;;;;;19.81;42.17;100725.88;4960317;28;124044;-70
2021/05/11 00:13:09;;;;;;;4.93;2.22;;;;;;;19.79;42.06;100739.44;4966867;28;123905;-70
2021/05/11 00:15:36;;;;;;;5.72;2.60;;;;;;;19.78;42.37;100736.91;4965997;28;110490;-70
2021/05/11 00:18:03;;;;;;;8.15;2.75;;;;;;;19.77;42.39;100745.94;4970026;28;109405;-70
2021/05/11 00:20:30;;;;;;;7.18;2.72;;;;;;;19.75;42.34;100739.84;4969610;28;124336;-70
2021/05/11 00:22:57;;;;;;;7.00;3.00;;;;;;;19.73;42.54;100739.97;4967432;28;123884;-70
2021/05/11 00:25:23;;;;;;;8.25;2.70;;;;;;;19.71;42.57;100738.38;4972960;28;109489;-70
2021/05/11 00:27:50;;;;;;;7.63;3.00;;;;;;;19.70;42.81;100731.28;4970451;28;109708;-70
2021/05/11 00:30:17;;;;;;;5.95;2.67;;;;;;;19.68;42.92;100731.41;4963823;28;124521;-70
2021/05/11 00:32:45;;;;;;;6.40;2.67;;;;;;;19.64;42.77;100729.97;4970294;28;122756;-70
2021/05/11 00:35:12;;;;;;;6.13;2.60;;;;;;;19.62;42.89;100737.31;4964964;28;109222;-70
2021/05/11 00:37:38;;;;;;;6.32;2.80;;;;;;;19.59;42.96;100733.06;4968228;28;107274;-70
2021/05/11 00:40:06;;;;;;;6.30;2.58;;;;;;;19.58;43.15;100742.09;4969082;28;124683;-70
2021/05/11 00:42:34;;;;;;;5.20;2.60;;;;;;;19.57;43.02;100740.41;4968737;28;123768;-70
2021/05/11 00:45:03;;;;;;;8.02;2.70;;;;;;;19.55;43.16;100731.63;4964888;28;109063;-70
2021/05/11 00:47:30;;;;;;;4.82;2.47;;;;;;;19.53;43.31;100736.25;4966480;28;109087;-70
2021/05/11 00:49:58;;;;;;;5.63;2.80;;;;;;;19.51;43.49;100740.91;4975393;28;123184;-70
2021/05/11 00:52:25;;;;;;;10.27;3.30;;;;;;;19.50;43.42;100739.22;4965545;28;123497;-70
2021/05/11 00:54:52;;;;;;;6.80;2.78;;;;;;;19.48;43.45;100733.13;4970736;28;109236;-70
2021/05/11 00:57:20;;;;;;;6.57;2.50;;;;;;;19.47;43.42;100739.47;4974506;28;108676;-70
2021/05/11 00:59:50;;;;;;;5.22;2.60;;;;;;;19.45;43.40;100728.00;4972791;28;124038;-70
2021/05/11 01:02:17;;;;;;;7.28;2.70;;;;;;;19.46;43.40;100732.41;4971155;28;123348;-70
2021/05/11 01:04:45;;;;;;;8.25;2.78;;;;;;;19.46;43.60;100740.47;4972063;28;109498;-70
2021/05/11 01:07:11;;;;;;;5.05;2.90;;;;;;;19.45;43.50;100736.06;4966573;28;108781;-70
2021/05/11 01:09:38;;;;;;;7.07;2.70;;;;;;;19.46;43.52;100743.16;4969696;28;124047;-70
2021/05/11 01:12:05;;;;;;;10.38;3.20;;;;;;;19.45;43.72;100730.69;4971024;28;123549;-70
2021/05/11 01:14:32;;;;;;;6.45;2.70;;;;;;;19.43;43.80;100733.50;4967645;28;108645;-70
2021/05/11 01:17:01;;;;;;;6.70;2.78;;;;;;;19.42;43.88;100730.94;4962294;28;108192;-70
2021/05/11 01:19:52;;;;;;;6.22;2.20;;;;;;;19.41;44.09;100729.25;4946087;28;123322;-70
2021/05/11 01:25:14;;;;;;;4.43;2.50;;;;;;;19.39;44.15;100725.84;4969009;28;107300;-70
2021/05/11 01:30:38;;;;;;;5.28;2.53;;;;;;;19.37;44.44;100728.66;4967745;28;124740;-70
2021/05/11 01:49:37;;;;;;;6.88;2.80;;;;;;;19.10;44.98;100715.72;4966545;28;108134;-70
2021/05/11 01:55:10;;;;;;;8.65;2.85;;;;;;;19.03;45.65;100720.72;4962772;28;123873;-70
2021/05/11 01:58:30;;;;;;;7.80;2.40;;;;;;;19.01;45.70;100721.84;4965308;28;110635;-70
2021/05/11 02:22:47;;;;;;;5.82;2.78;;;;;;;18.81;47.01;100727.00;4966344;28;109539;-70
2021/05/11 02:25:14;;;;;;;7.93;3.00;;;;;;;18.80;47.48;100735.16;4964895;28;124015;-70
2021/05/11 02:27:45;;;;;;;6.20;3.20;;;;;;;18.78;47.58;100727.22;4968064;28;124162;-70
2021/05/11 02:30:15;;;;;;;5.95;2.90;;;;;;;18.76;47.44;100734.56;4965888;28;109510;-70
2021/05/11 02:32:42;;;;;;;7.30;2.80;;;;;;;18.76;47.81;100733.69;4970481;28;108706;-70
2021/05/11 02:35:12;;;;;;;8.70;3.50;;;;;;;18.73;47.89;100729.41;4969047;28;124391;-70
2021/05/11 02:37:39;;;;;;;7.22;3.40;;;;;;;18.71;47.93;100734.06;4953400;28;123295;-70
2021/05/11 02:40:08;;;;;;;7.43;3.60;;;;;;;18.68;48.06;100720.88;4983757;22;109522;-68
2021/05/11 02:42:36;;;;;;;7.60;3.60;;;;;;;18.66;48.38;100734.41;4968413;28;107787;-68
2021/05/11 02:45:10;;;;;;;7.10;3.83;;;;;;;18.60;48.25;100729.56;4973940;28;124339;-68
2021/05/11 02:47:47;;;;;;;7.57;3.65;;;;;;;18.59;48.42;100721.63;4968015;28;123993;-68
2021/05/11 02:50:16;;;;;;;7.13;3.80;;;;;;;18.56;48.16;100721.91;4970041;28;109629;-68
2021/05/11 02:52:43;;;;;;;9.20;3.88;;;;;;;18.54;48.61;100730.06;4967690;28;110290;-68
2021/05/11 02:55:10;;;;;;;7.70;3.72;;;;;;;18.53;48.83;100738.22;4970916;28;123904;-68
2021/05/11 02:57:37;;;;;;;9.02;3.78;;;;;;;18.51;49.05;100729.44;4973480;28;123655;-68
2021/05/11 03:00:05;;;;;;;6.82;3.80;;;;;;;18.49;48.97;100725.03;4972234;28;108920;-68
2021/05/11 03:02:32;;;;;;;9.45;3.80;;;;;;;18.48;48.80;100718.00;4973381;28;108663;-68
2021/05/11 03:04:59;;;;;;;8.20;4.15;;;;;;;18.47;49.13;100721.63;4971242;28;124134;-68
2021/05/11 03:07:26;;;;;;;9.23;4.32;;;;;;;18.47;49.01;100721.63;4973963;28;124851;-68
2021/05/11 03:09:53;;;;;;;9.98;4.80;;;;;;;18.46;49.17;100717.28;4967879;28;108390;-68
2021/05/11 03:12:20;;;;;;;8.75;4.68;;;;;;;18.43;49.29;100717.50;4973891;28;109149;-68
2021/05/11 03:14:47;;;;;;;11.65;5.20;;;;;;;18.41;49.44;100719.47;4965361;28;124745;-68
2021/05/11 03:17:13;;;;;;;9.32;5.22;;;;;;;18.40;49.50;100733.84;4971201;28;124350;-68
2021/05/11 03:19:40;;;;;;;9.13;5.20;;;;;;;18.38;49.72;100722.38;4973918;28;109703;-68
2021/05/11 03:22:10;;;;;;;9.25;5.30;;;;;;;18.36;49.93;100721.66;4970760;28;109428;-68
2021/05/11 03:24:38;;;;;;;10.52;5.53;;;;;;;18.36;49.95;100715.44;4969414;28;124702;-68
2021/05/11 03:27:05;;;;;;;10.98;5.40;;;;;;;18.36;49.98;100715.44;4966424;28;123886;-68
2021/05/11 03:29:32;;;;;;;10.77;5.40;;;;;;;18.36;50.26;100710.06;4968521;28;109639;-68
2021/05/11 03:31:58;;;;;;;8.07;5.45;;;;;;;18.34;50.43;100712.88;4972129;28;108994;-68
2021/05/11 03:34:25;;;;;;;11.82;5.30;;;;;;;18.34;50.45;100712.88;4973668;28;124032;-68
2021/05/11 03:36:51;;;;;;;8.60;5.57;;;;;;;18.31;50.70;100713.13;4969160;28;123458;-68
2021/05/11 03:39:18;;;;;;;9.93;5.88;;;;;;;18.30;50.75;100711.41;4968378;28;110373;-68
2021/05/11 03:41:52;;;;;;;9.75;5.40;;;;;;;18.29;50.98;100720.47;4973357;28;110221;-68
2021/05/11 03:44:27;;;;;;;9.25;5.22;;;;;;;18.26;51.42;100709.97;4970048;28;124187;-68
2021/05/11 03:46:54;;;;;;;9.88;5.70;;;;;;;18.24;51.16;100723.47;4970295;28;124053;-68
2021/05/11 03:49:21;;;;;;;11.57;5.68;;;;;;;18.22;51.35;100720.06;4965565;28;110621;-68
2021/05/11 03:51:48;;;;;;;8.95;5.80;;;;;;;18.22;51.50;100729.94;4968148;28;109181;-68
2021/05/11 03:54:16;;;;;;;7.57;5.47;;;;;;;18.23;51.35;100726.28;4972939;28;124902;-68
2021/05/11 03:56:43;;;;;;;7.82;4.72;;;;;;;18.25;51.49;100724.34;4964369;28;124571;-68
2021/05/11 03:59:10;;;;;;;8.07;5.00;;;;;;;18.25;51.21;100727.00;4969824;28;108208;-68
2021/05/11 04:01:37;;;;;;;11.68;5.25;;;;;;;18.26;51.40;100728.72;4971965;28;109317;-68
2021/05/11 04:04:05;;;;;;;9.88;5.03;;;;;;;18.26;51.54;100731.41;4964991;28;123751;-68
2021/05/11 04:06:32;;;;;;;9.95;5.00;;;;;;;18.25;51.67;100724.34;4963431;28;122645;-68
2021/05/11 04:16:40;;;;;;;10.40;5.30;;;;;;;18.16;52.17;100738.47;4966471;28;123863;-68
2021/05/11 04:19:11;;;;;;;10.07;5.20;;;;;;;18.16;52.33;100741.13;4961200;28;109992;-68
2021/05/11 04:21:38;;;;;;;10.13;5.60;;;;;;;18.14;52.40;100732.38;4965982;28;108219;-68
2021/05/11 04:24:06;;;;;;;10.10;5.50;;;;;;;18.13;52.81;100736.03;4964994;28;124048;-68
2021/05/11 04:26:33;;;;;;;12.05;5.18;;;;;;;18.14;52.67;100732.38;4971270;28;123624;-68
2021/05/11 04:29:01;;;;;;;8.60;5.40;;;;;;;18.15;52.91;100734.09;4962621;28;109173;-68
2021/05/11 04:31:29;;;;;;;8.05;5.13;;;;;;;18.16;53.00;100730.41;4982100;28;109351;-68
2021/05/11 04:33:57;;;;;;;10.70;5.03;;;;;;;18.17;52.94;100735.66;4965765;28;123834;-68
2021/05/11 04:36:24;;;;;;;11.05;5.03;;;;;;;18.17;53.00;100732.13;4967646;28;123747;-68
2021/05/11 04:38:51;;;;;;;8.98;5.07;;;;;;;18.17;53.07;100726.78;4972951;28;109188;-68
2021/05/11 04:41:18;;;;;;;12.52;5.45;;;;;;;18.16;53.09;100725.06;4964607;28;109217;-68
2021/05/11 04:43:47;;;;;;;9.70;5.30;;;;;;;18.18;53.27;100733.84;4969896;28;124875;-68
2021/05/11 04:46:26;;;;;;;12.15;5.60;;;;;;;18.17;53.37;100726.78;4967727;28;123758;-68
2021/05/11 04:48:54;;;;;;;9.95;5.13;;;;;;;18.15;53.30;100731.41;4969560;28;109238;-68
2021/05/11 04:51:21;;;;;;;12.18;5.65;;;;;;;18.14;53.54;100733.25;4973008;28;108961;-68
2021/05/11 04:53:49;;;;;;;10.10;4.75;;;;;;;18.14;53.45;100737.72;4969727;28;123643;-68
2021/05/11 04:56:16;;;;;;;10.88;5.50;;;;;;;18.13;53.72;100741.41;4971604;28;124774;-68
2021/05/11 04:58:43;;;;;;;10.15;5.30;;;;;;;18.13;53.62;100741.41;4972925;28;108893;-68
2021/05/11 05:01:10;;;;;;;11.48;5.30;;;;;;;18.13;53.82;100744.09;4972325;28;108676;-68
2021/05/11 05:03:40;;;;;;;9.98;5.13;;;;;;;18.15;53.94;100744.81;4970145;28;123812;-68
2021/05/11 05:06:07;;;;;;;13.98;5.35;;;;;;;18.15;53.77;100744.81;4965895;28;124211;-67
2021/05/11 05:08:35;;;;;;;10.60;5.60;;;;;;;18.14;54.02;100740.41;4973051;28;109519;-68
2021/05/11 05:11:02;;;;;;;9.30;4.95;;;;;;;18.13;54.11;100746.75;4971499;28;108829;-68
2021/05/11 05:13:29;;;;;;;8.10;5.63;;;;;;;18.13;54.09;100747.59;4967150;28;123593;-68
2021/05/11 05:15:58;;;;;;;8.32;5.40;;;;;;;18.15;54.09;100744.81;4963611;28;125728;-68
2021/05/11 05:18:30;;;;;;;10.00;5.50;;;;;;;18.16;54.33;100752.75;4966921;28;110227;-68
2021/05/11 05:20:57;;;;;;;11.70;5.20;;;;;;;18.19;54.42;100751.63;4972374;28;109970;-68
2021/05/11 05:23:33;;;;;;;9.70;5.55;;;;;;;18.21;54.23;100757.72;4967896;28;124600;-68
2021/05/11 05:26:05;;;;;;;11.05;5.07;;;;;;;18.22;54.28;100751.41;4971371;28;123689;-68
2021/05/11 05:28:38;;;;;;;11.55;4.93;;;;;;;18.21;54.32;100755.88;4979538;28;109170;-68
2021/05/11 05:31:06;;;;;;;7.35;5.18;;;;;;;18.20;54.52;100748.00;4969893;28;109252;-68
2021/05/11 05:33:36;;;;;;;9.07;5.15;;;;;;;18.22;54.51;100746.03;4963539;28;124333;-68
2021/05/11 05:36:04;;;;;;;10.48;5.35;;;;;;;18.23;54.39;100737.88;4970327;28;123823;-68
2021/05/11 05:38:33;;;;;;;10.60;5.65;;;;;;;18.24;54.55;100738.72;4970036;28;109125;-68
2021/05/11 05:41:08;;;;;;;10.45;5.40;;;;;;;18.26;54.60;100737.63;4969949;28;109214;-68
2021/05/11 05:43:35;;;;;;;11.27;5.40;;;;;;;18.30;54.66;100738.22;4968000;28;123949;-68
2021/05/11 05:46:02;;;;;;;11.48;5.45;;;;;;;18.32;54.71;100744.31;4971591;28;123964;-68
2021/05/11 05:48:29;;;;;;;13.02;5.65;;;;;;;18.36;54.83;100748.47;4972437;28;109407;-68
2021/05/11 05:51:01;;;;;;;7.95;5.10;;;;;;;18.39;54.71;100748.22;4967537;28;108844;-68
2021/05/11 05:53:42;;;;;;;10.57;5.50;;;;;;;18.41;54.58;100735.56;4965172;28;124595;-68
2021/05/11 05:56:10;;;;;;;9.07;5.50;;;;;;;18.46;54.68;100743.25;4967065;28;124620;-68
2021/05/11 05:58:37;;;;;;;12.38;5.65;;;;;;;18.48;54.46;100747.50;4972970;28;109144;-68
2021/05/11 06:01:09;;;;;;;10.65;5.85;;;;;;;18.53;54.63;100748.94;4962912;28;107989;-68
2021/05/11 06:06:12;;;;;;;7.60;5.30;;;;;;;18.61;54.53;100746.50;4968586;28;123593;-67
2021/05/11 06:08:40;;;;;;;11.25;5.18;;;;;;;18.65;54.58;100754.19;4976875;28;110765;-68
2021/05/11 06:11:14;;;;;;;8.82;5.07;;;;;;;18.70;54.47;100755.66;4973607;28;109987;-67
2021/05/11 06:18:55;;;;;;;9.70;5.90;;;;;;;18.80;54.38;100746.75;4976209;28;109428;-68
2021/05/11 06:21:23;;;;;;;9.35;5.05;;;;;;;18.83;54.13;100757.22;4988583;28;109502;-68
2021/05/11 06:23:50;;;;;;;10.82;6.03;;;;;;;18.86;54.34;100757.00;4971057;28;122058;-68
2021/05/11 06:26:17;;;;;;;13.25;5.78;;;;;;;18.91;54.13;100763.81;4976274;28;125054;-68
2021/05/11 06:28:45;;;;;;;9.75;5.55;;;;;;;18.92;54.04;100746.75;4973156;28;108118;-68
2021/05/11 06:31:12;;;;;;;11.07;5.78;;;;;;;18.94;54.24;100758.19;4965839;28;109073;-70
2021/05/11 06:33:39;;;;;;;8.93;5.70;;;;;;;18.92;54.01;100755.63;4976908;28;124285;-70
2021/05/11 06:36:06;;;;;;;12.45;5.95;;;;;;;18.93;54.23;100756.47;4977987;28;124802;-70
2021/05/11 06:38:33;;;;;;;10.25;5.68;;;;;;;18.92;54.16;100750.28;4977737;28;109197;-69
2021/05/11 06:41:01;;;;;;;8.63;5.55;;;;;;;18.94;54.16;100755.53;4976878;28;106918;-70
2021/05/11 06:43:31;;;;;;;11.15;5.70;;;;;;;18.98;54.39;100756.97;4973822;28;124735;-70
2021/05/11 06:48:28;;;;;;;6.65;5.55;;;;;;;19.07;54.50;100737.44;4974819;28;109271;-70
2021/05/11 06:53:38;;;;;;;9.23;5.55;;;;;;;19.20;54.36;100724.69;4960858;28;124314;-70
2021/05/11 06:56:09;;;;;;;14.48;6.10;;;;;;;19.29;54.03;100724.88;4955371;28;124213;-70
2021/05/11 06:58:37;;;;;;;11.80;5.65;;;;;;;19.39;54.48;100720.47;4956972;28;110935;-70
2021/05/11 07:01:05;;;;;;;10.27;5.63;;;;;;;19.52;54.41;100712.22;4958128;28;109891;-70
2021/05/11 07:03:32;;;;;;;9.27;5.30;;;;;;;19.69;54.28;100702.72;4960248;28;125044;-70
2021/05/11 07:06:00;;;;;;;9.55;5.32;;;;;;;19.85;54.12;100703.13;4958502;28;124637;-70
2021/05/11 07:08:39;;;;;;;9.75;5.43;;;;;;;20.00;53.55;100699.13;4955735;28;109572;-70
2021/05/11 07:11:25;;;;;;;8.88;4.95;;;;;;;20.16;53.41;100697.78;4955244;28;108269;-70
2021/05/11 07:13:53;;;;;;;9.60;5.07;;;;;;;20.40;53.03;100700.97;4941132;28;123298;-70
2021/05/11 07:16:20;;;;;;;6.18;4.53;;;;;;;20.60;52.59;100701.06;4956513;28;122880;-70
2021/05/11 07:18:47;;;;;;;7.15;4.47;;;;;;;20.74;52.14;100699.84;4955089;28;109484;-69
2021/05/11 07:21:14;;;;;;;10.40;4.30;;;;;;;20.86;51.54;100698.72;4969928;28;109334;-69
2021/05/11 07:23:42;;;;;;;8.20;4.25;;;;;;;21.01;51.08;100699.16;4972717;28;124039;-69
2021/05/11 07:26:24;;;;;;;9.68;4.57;;;;;;;21.10;50.70;100692.94;4968714;28;123344;-70
2021/05/11 07:29:11;;;;;;;9.73;4.70;;;;;;;21.18;49.87;100698.44;4966454;28;108806;-69
2021/05/11 07:31:39;;;;;;;7.78;4.00;;;;;;;21.26;49.58;100699.59;4969069;28;110806;-70
2021/05/11 07:34:08;;;;;;;11.98;4.53;;;;;;;21.30;49.10;100709.91;4969517;28;124041;-69
2021/05/11 07:36:35;;;;;;;10.45;4.65;;;;;;;21.32;49.00;100712.47;4981132;28;124067;-69
2021/05/11 07:39:03;;;;;;;8.80;5.10;;;;;;;21.35;48.86;100706.81;4967071;28;108649;-70
2021/05/11 07:41:30;;;;;;;9.52;5.00;;;;;;;21.36;48.37;100708.50;4973307;28;109195;-70
2021/05/11 07:43:58;;;;;;;7.28;4.43;;;;;;;21.36;48.46;100706.69;4973900;28;124750;-70
2021/05/11 08:14:23;;;;;;;9.82;5.90;;;;;;;21.12;48.30;100712.47;4967033;28;109213;-69
2021/05/11 08:16:23;;;;;;;10.98;6.20;;;;;;;21.06;48.15;100702.28;4969601;28;123921;-70
2021/05/11 08:19:04;;;;;;;8.68;6.28;;;;;;;21.02;48.24;100703.56;4960053;28;123829;-71
2021/05/11 08:29:48;;;;;;;10.40;6.28;;;;;;;20.89;48.54;100705.63;4969175;28;124443;-69
2021/05/11 08:32:16;;;;;;;11.35;5.95;;;;;;;20.88;48.85;100709.34;4966253;28;108487;-71
2021/05/11 08:34:45;;;;;;;10.52;6.35;;;;;;;20.89;48.74;100716.41;4978766;28;108012;-70
2021/05/11 08:37:16;;;;;;;11.43;6.13;;;;;;;20.92;48.80;100716.13;4952291;28;123485;-70
2021/05/11 08:39:44;;;;;;;10.07;5.80;;;;;;;20.93;48.41;100726.78;4966506;28;123991;-72
2021/05/11 08:42:24;;;;;;;11.65;4.68;;;;;;;20.90;48.31;100728.91;4992816;28;99256;-67
2021/05/11 08:44:51;;;;;;;8.73;5.05;;;;;;;20.87;48.15;100737.25;4992198;28;108860;-67
2021/05/11 08:47:20;;;;;;;10.88;4.70;;;;;;;20.86;48.16;100738.25;4993779;28;124244;-67
2021/05/11 08:49:48;;;;;;;10.65;4.63;;;;;;;20.85;48.01;100736.53;4988432;28;124635;-67
2021/05/11 09:06:34;;;;;;;9.50;5.22;;;;;;;20.88;48.65;100744.34;4994840;28;108884;-67
2021/05/11 09:09:23;;;;;;;15.50;6.72;;;;;;;20.91;48.74;100752.16;4975759;28;123168;-66
2021/05/11 09:26:05;;;;;;;10.35;5.70;;;;;;;20.97;48.97;100783.91;4933241;28;109560;-66
2021/05/11 09:31:10;;;;;;;11.45;5.50;;;;;;;20.96;48.76;100787.56;4989440;28;122912;-67
2021/05/11 09:33:48;;;;;;;9.88;5.47;;;;;;;20.93;48.84;100793.25;4989420;28;124134;-68
2021/05/11 09:56:25;;;;;;;9.88;6.32;;;;;;;21.02;49.61;100765.50;4990907;28;124163;-67
2021/05/11 10:13:49;;;;;;;10.52;5.78;;;;;;;21.14;49.89;100742.81;4988630;28;109413;-66
2021/05/11 10:36:27;;;;;;;10.27;4.88;;;;;;;21.14;49.68;100680.88;4981442;28;109167;-67
2021/05/11 10:41:42;;;;;;;10.30;5.38;;;;;;;21.36;49.95;100686.94;4991050;28;124265;-67
2021/05/11 10:49:36;;;;;;;8.32;5.82;;;;;;;21.51;48.96;100680.19;4990280;28;124385;-67
2021/05/11 10:52:37;;;;;;;12.68;5.65;;;;;;;21.53;48.44;100672.78;4993010;28;122980;-67
2021/05/11 10:55:10;;;;;;;11.48;5.30;;;;;;;21.54;48.32;100669.09;4995801;28;108629;-67
2021/05/11 10:58:02;;;;;;;9.85;5.43;;;;;;;21.57;48.05;100679.59;4984590;28;109114;-67
2021/05/11 11:00:43;;;;;;;10.15;5.28;;;;;;;21.57;47.65;100684.97;4990076;28;123543;-67
2021/05/11 11:03:22;;;;;;;8.63;5.10;;;;;;;21.51;47.21;100677.47;4990167;28;124083;-68
2021/05/11 11:05:55;;;;;;;8.88;5.72;;;;;;;21.45;47.04;100675.34;4991441;28;109746;-67
2021/05/11 11:08:38;;;;;;;11.90;5.70;;;;;;;21.39;47.46;100692.06;4991239;28;109425;-67
2021/05/11 11:11:20;;;;;;;10.90;5.57;;;;;;;21.38;47.05;100685.00;4989259;28;125910;-67
2021/05/11 11:13:52;;;;;;;11.82;5.45;;;;;;;21.34;46.95;100688.94;4993182;28;124148;-66
2021/05/11 11:16:39;;;;;;;9.20;5.50;;;;;;;21.33;47.43;100692.63;4993347;28;108294;-67
2021/05/11 11:19:12;;;;;;;9.23;5.47;;;;;;;21.33;47.15;100689.94;4991152;28;109315;-67
2021/05/11 11:24:27;;;;;;;10.70;6.47;;;;;;;21.33;47.13;100698.03;4994488;28;124956;-67
2021/05/11 11:26:57;;;;;;;11.20;6.63;;;;;;;21.31;47.24;100694.63;4991914;28;109228;-67
2021/05/11 11:29:25;;;;;;;12.15;6.60;;;;;;;21.30;47.18;100701.00;4994127;28;110187;-67
2021/05/11 11:31:54;;;;;;;12.52;7.03;;;;;;;21.27;46.72;100706.69;4991688;28;124067;-67
2021/05/11 11:34:36;;;;;;;10.45;6.35;;;;;;;21.19;46.91;100702.84;4992113;28;124235;-67
2021/05/11 11:37:14;;;;;;;11.82;6.55;;;;;;;21.13;46.97;100700.69;4992876;28;109433;-67
2021/05/11 11:39:49;;;;;;;12.07;6.28;;;;;;;21.10;47.49;100703.69;4976197;28;107857;-67
2021/05/11 11:42:22;;;;;;;13.27;6.80;;;;;;;21.09;47.44;100701.13;4993336;28;123944;-67
2021/05/11 11:45:03;;;;;;;10.43;6.18;;;;;;;21.07;47.75;100698.59;4999784;28;122859;-68
2021/05/11 11:47:41;;;;;;;12.57;6.60;;;;;;;21.05;47.79;100705.94;4991189;28;109609;-67
2021/05/11 11:50:13;;;;;;;11.55;6.03;;;;;;;21.04;47.82;100709.66;4988202;28;110099;-67
2021/05/11 11:52:50;;;;;;;10.60;6.07;;;;;;;21.05;47.56;100705.09;4991491;28;124756;-67
2021/05/11 11:55:35;;;;;;;8.75;5.95;;;;;;;21.04;47.79;100709.66;4991935;28;123138;-67
2021/05/11 11:58:03;;;;;;;11.13;6.40;;;;;;;21.05;47.94;100705.94;4984686;28;109510;-67
2021/05/11 12:00:32;;;;;;;13.18;6.40;;;;;;;21.06;48.03;100707.66;4988027;28;109037;-67
2021/05/11 12:03:03;;;;;;;13.60;6.35;;;;;;;21.08;47.37;100707.50;4992094;28;124159;-66
2021/05/11 12:05:43;;;;;;;11.00;6.35;;;;;;;21.06;47.32;100709.50;4988076;28;124797;-67
2021/05/11 12:10:47;;;;;;;13.98;5.70;;;;;;;21.03;47.77;100713.31;4991697;28;109202;-67
2021/05/11 12:13:18;;;;;;;13.80;6.07;;;;;;;21.02;47.70;100714.34;4994317;28;123094;-67
2021/05/11 12:16:07;;;;;;;11.27;5.55;;;;;;;21.03;47.72;100718.72;4992220;28;124006;-67
2021/05/11 12:18:35;;;;;;;14.32;5.38;;;;;;;21.08;47.56;100719.16;4990883;28;110129;-67
2021/05/11 12:21:06;;;;;;;13.35;5.70;;;;;;;21.12;47.50;100707.09;4991787;28;109946;-66
2021/05/11 12:23:34;;;;;;;7.35;4.40;;;;;;;21.16;47.07;100703.13;4992095;28;124247;-67
2021/05/11 12:26:04;;;;;;;12.35;5.10;;;;;;;21.18;47.25;100720.00;4992380;28;124495;-66
2021/05/11 12:28:38;;;;;;;11.38;5.43;;;;;;;21.22;47.36;100717.03;4992702;28;108101;-66
2021/05/11 12:31:10;;;;;;;11.57;6.50;;;;;;;21.26;46.96;100713.06;4993557;28;108510;-66
2021/05/11 12:33:43;;;;;;;10.40;6.20;;;;;;;21.30;47.11;100719.84;4980181;28;125326;-67
2021/05/11 12:36:14;;;;;;;14.20;6.60;;;;;;;21.34;46.91;100721.25;4990229;28;123924;-66
2021/05/11 12:38:42;;;;;;;10.73;5.43;;;;;;;21.37;47.08;100726.38;4972118;28;108190;-65
2021/05/11 12:41:32;;;;;;;10.30;6.22;;;;;;;21.40;47.19;100720.72;4994174;28;108825;-66
2021/05/11 12:44:01;;;;;;;9.85;5.30;;;;;;;21.46;46.75;100720.16;4961744;28;123294;-66
2021/05/11 12:46:31;;;;;;;14.90;5.70;;;;;;;21.50;46.50;100715.34;4991471;28;124418;-66
2021/05/11 12:49:01;;;;;;;8.85;4.70;;;;;;;21.52;46.41;100719.59;4982659;28;109219;-66
2021/05/11 12:51:37;;;;;;;8.25;4.10;;;;;;;21.51;46.10;100717.91;4993022;28;108920;-66
2021/05/11 12:54:42;;;;;;;8.35;4.00;;;;;;;21.48;45.76;100718.19;4986061;28;124720;-66
2021/05/11 12:57:52;;;;;;;9.20;4.57;;;;;;;21.48;45.80;100718.19;5001374;28;122932;-67
2021/05/11 13:00:12;;;;;;;10.02;4.25;;;;;;;21.49;46.03;100719.91;4993954;28;118393;-66
2021/05/11 13:17:38;;;;;;;8.90;4.15;;;;;;;21.42;45.58;100734.91;4941371;28;123985;-67
2021/05/11 13:20:14;;;;;;;10.30;4.10;;;;;;;21.43;45.68;100720.41;4950464;28;124595;-67
2021/05/11 13:22:54;;;;;;;9.00;4.70;;;;;;;21.44;46.34;100732.06;4982892;28;108982;-67
2021/05/11 13:25:35;;;;;;;7.85;5.20;;;;;;;21.43;46.37;100736.56;4990467;28;109297;-67
2021/05/11 13:35:31;;;;;;;10.70;6.50;;;;;;;21.39;46.23;100738.69;4994382;28;109249;-67
2021/05/11 13:37:58;;;;;;;11.32;5.90;;;;;;;21.35;46.35;100739.97;4986697;28;124394;-67
2021/05/11 13:40:26;;;;;;;11.75;6.78;;;;;;;21.31;46.66;100735.03;4991448;28;123844;-67
2021/05/11 13:42:53;;;;;;;14.88;7.10;;;;;;;21.30;46.81;100746.78;4991266;28;109160;-68
2021/05/11 13:45:20;;;;;;;15.32;7.57;;;;;;;21.28;46.73;100759.56;4993304;28;109197;-68
2021/05/11 13:48:03;;;;;;;12.43;8.07;;;;;;;21.26;46.92;100759.69;4990901;28;123097;-68
2021/05/11 13:53:02;;;;;;;13.38;7.90;;;;;;;21.19;46.86;100724.41;4991200;28;109193;-68
2021/05/11 13:55:38;;;;;;;13.07;7.93;;;;;;;21.17;47.48;100721.00;4992816;28;108061;-69
2021/05/11 14:03:37;;;;;;;15.75;8.70;;;;;;;21.16;47.38;100696.91;5009220;28;109502;-64
2021/05/11 14:06:04;;;;;;;13.38;8.30;;;;;;;21.13;47.31;100698.00;4991555;28;110672;-67
2021/05/11 14:08:31;;;;;;;11.88;8.25;;;;;;;21.11;47.30;100700.00;4990423;28;124447;-65
2021/05/11 14:10:58;;;;;;;13.27;8.05;;;;;;;21.07;47.48;100709.34;4993549;28;124360;-67
2021/05/11 14:13:26;;;;;;;12.18;8.20;;;;;;;21.05;47.50;100711.34;4991579;28;109285;-68
2021/05/11 14:15:53;;;;;;;14.32;8.32;;;;;;;21.03;47.31;100718.72;4990026;28;108477;-67
2021/05/11 14:18:20;;;;;;;12.43;8.73;;;;;;;21.00;47.81;100721.66;4988661;28;124021;-67
2021/05/11 14:20:47;;;;;;;12.52;8.45;;;;;;;21.02;47.61;100717.03;4992266;28;123321;-65
2021/05/11 14:23:14;;;;;;;14.13;8.20;;;;;;;21.01;47.47;100731.47;4990275;28;109623;-65
2021/05/11 14:25:42;;;;;;;13.63;8.20;;;;;;;21.00;47.33;100725.25;4991045;28;109100;-64
2021/05/11 14:28:10;;;;;;;11.80;8.60;;;;;;;21.00;47.14;100740.50;4992016;28;124363;-65
2021/05/11 14:30:37;;;;;;;13.90;8.02;;;;;;;20.99;47.71;100744.22;4994852;28;126750;-65
2021/05/11 14:33:04;;;;;;;13.90;8.73;;;;;;;21.01;47.89;100747.63;4995201;28;109129;-65
2021/05/11 14:35:32;;;;;;;12.43;8.90;;;;;;;21.04;48.02;100741.09;4990878;28;108992;-67
2021/05/11 14:37:59;;;;;;;12.82;8.77;;;;;;;21.06;47.92;100726.53;4993502;28;124103;-66
2021/05/11 14:40:26;;;;;;;13.20;8.88;;;;;;;21.05;47.96;100727.50;5012772;23;123878;-66
2021/05/11 14:42:54;;;;;;;13.70;9.65;;;;;;;21.07;48.05;100736.28;4993285;28;108158;-67
2021/05/11 14:45:21;;;;;;;12.38;8.07;;;;;;;21.08;48.02;100735.31;4993964;28;108849;-69
2021/05/11 14:47:48;;;;;;;14.82;8.85;;;;;;;21.10;47.74;100738.72;4995292;28;124389;-69
2021/05/11 14:50:18;;;;;;;14.38;8.75;;;;;;;21.10;47.53;100730.63;4995386;28;124271;-67
2021/05/11 14:52:49;;;;;;;13.80;8.80;;;;;;;21.11;47.67;100737.69;4993037;28;110589;-67
2021/05/11 14:55:19;;;;;;;12.27;7.82;;;;;;;21.13;47.48;100735.72;4993873;28;110356;-67
2021/05/11 14:57:46;;;;;;;10.85;6.70;;;;;;;21.14;47.33;100737.44;4995204;28;123964;-67
2021/05/11 15:00:14;;;;;;;12.90;7.18;;;;;;;21.16;47.24;100740.84;4996373;28;124372;-68
2021/05/11 15:02:41;;;;;;;10.65;6.53;;;;;;;21.17;47.00;100737.16;4978466;28;108190;-69
2021/05/11 15:05:09;;;;;;;10.90;6.50;;;;;;;21.17;47.09;100737.16;4993322;28;109473;-69
2021/05/11 15:07:37;;;;;;;9.90;5.85;;;;;;;21.16;47.04;100740.84;4993369;28;123934;-68
2021/05/11 15:10:05;;;;;;;10.57;5.15;;;;;;;21.17;46.68;100747.94;4993043;28;124134;-69
2021/05/11 15:12:32;;;;;;;10.65;4.88;;;;;;;21.14;46.55;100742.81;4993442;28;109607;-68
2021/05/11 15:14:59;;;;;;;9.50;4.90;;;;;;;21.10;46.62;100729.78;4990183;28;109259;-69
2021/05/11 15:19:57;;;;;;;11.65;6.63;;;;;;;21.04;47.08;100733.88;4992808;28;124289;-68
2021/05/11 15:22:25;;;;;;;12.43;7.13;;;;;;;21.01;47.32;100726.06;4994798;28;108352;-69